createdAt,value
2019-05-26T00:01:47.507Z,8.32
2019-05-26T00:04:20.023Z,8.29
2019-05-26T00:06:52.732Z,8.20
2019-05-26T00:09:27.976Z,8.12
2019-05-26T00:12:02.495Z,8.10
2019-05-26T00:14:35.005Z,8.01
2019-05-26T00:17:07.561Z,7.95
2019-05-26T00:19:41.696Z,7.93
2019-05-26T00:22:15.205Z,7.89
2019-05-26T00:24:47.779Z,7.87
2019-05-26T00:27:21.384Z,7.93
2019-05-26T00:29:54.602Z,7.95
2019-05-26T00:32:27.099Z,7.97
2019-05-26T00:35:01.125Z,8.06
2019-05-26T00:37:48.260Z,7.95
2019-05-26T00:40:27.205Z,7.80
2019-05-26T00:43:02.642Z,7.81
2019-05-26T00:45:38.030Z,7.94
2019-05-26T00:48:10.763Z,7.91
2019-05-26T00:50:43.693Z,7.85
2019-05-26T00:53:16.367Z,7.76
2019-05-26T00:55:49.368Z,7.69
2019-05-26T00:58:22.148Z,7.66
2019-05-26T01:00:55.326Z,7.61
2019-05-26T01:03:27.882Z,7.57
2019-05-26T01:06:00.507Z,7.56
2019-05-26T01:08:33.282Z,7.58
2019-05-26T01:11:05.934Z,7.63
2019-05-26T01:13:39.389Z,7.73
2019-05-26T01:16:12.043Z,7.74
2019-05-26T01:18:47.213Z,7.86
2019-05-26T01:21:24.720Z,8.01
2019-05-26T01:23:59.190Z,8.17
2019-05-26T01:26:31.768Z,8.21
2019-05-26T01:29:05.951Z,8.26
2019-05-26T01:31:38.574Z,8.24
2019-05-26T01:34:11.139Z,8.32
2019-05-26T01:36:48.755Z,8.48
2019-05-26T01:39:24.461Z,8.69
2019-05-26T01:42:02.039Z,8.60
2019-05-26T01:44:35.745Z,8.54
2019-05-26T01:47:08.350Z,8.48
2019-05-26T01:49:41.102Z,8.53
2019-05-26T01:52:13.726Z,8.72
2019-05-26T01:54:48.225Z,8.81
2019-05-26T01:57:21.823Z,8.79
2019-05-26T01:59:54.487Z,8.85
2019-05-26T02:02:27.140Z,8.95
2019-05-26T02:04:59.798Z,9.20
2019-05-26T02:07:33.856Z,9.27
2019-05-26T02:10:07.762Z,9.21
2019-05-26T02:12:41.674Z,9.24
2019-05-26T02:15:20.583Z,9.45
2019-05-26T02:17:53.218Z,9.70
2019-05-26T02:20:26.474Z,9.92
2019-05-26T02:22:59.563Z,10.13
2019-05-26T02:25:32.738Z,10.30
2019-05-26T02:28:05.425Z,10.47
2019-05-26T02:30:38.230Z,10.62
2019-05-26T02:33:11.440Z,10.68
2019-05-26T02:35:44.617Z,10.57
2019-05-26T02:38:17.321Z,10.67
2019-05-26T02:40:49.996Z,10.84
2019-05-26T02:43:22.693Z,11.11
2019-05-26T02:45:55.238Z,11.30
2019-05-26T02:48:28.372Z,11.43
2019-05-26T02:51:02.422Z,11.45
2019-05-26T02:53:34.999Z,11.48
2019-05-26T02:56:07.821Z,11.55
2019-05-26T02:58:41.061Z,11.63
2019-05-26T03:01:13.772Z,11.69
2019-05-26T03:03:47.255Z,11.70
2019-05-26T03:06:22.124Z,11.68
2019-05-26T03:08:57.824Z,11.63
2019-05-26T03:11:33.730Z,11.55
2019-05-26T03:14:10.894Z,11.49
2019-05-26T03:16:46.664Z,11.44
2019-05-26T03:19:22.971Z,11.39
2019-05-26T03:21:59.584Z,11.41
2019-05-26T03:24:34.260Z,11.46
2019-05-26T03:27:07.023Z,11.46
2019-05-26T03:29:39.547Z,11.44
2019-05-26T03:32:12.177Z,11.38
2019-05-26T03:34:44.801Z,11.32
2019-05-26T03:37:17.497Z,11.25
2019-05-26T03:39:50.046Z,11.23
2019-05-26T03:42:22.714Z,11.18
2019-05-26T03:44:55.994Z,11.12
2019-05-26T03:47:30.020Z,11.08
2019-05-26T03:50:03.909Z,11.03
2019-05-26T03:52:36.708Z,11.00
2019-05-26T03:55:09.621Z,10.97
2019-05-26T03:57:42.261Z,10.94
2019-05-26T04:00:16.327Z,10.91
2019-05-26T04:02:49.077Z,10.90
2019-05-26T04:05:21.631Z,10.88
2019-05-26T04:07:54.390Z,10.93
2019-05-26T04:10:27.695Z,10.97
2019-05-26T04:13:00.926Z,11.03
2019-05-26T04:15:33.546Z,11.10
2019-05-26T04:18:08.889Z,11.17
2019-05-26T04:20:45.589Z,11.22
2019-05-26T04:23:19.586Z,11.23
2019-05-26T04:25:53.556Z,11.28
2019-05-26T04:28:26.460Z,11.31
2019-05-26T04:31:00.665Z,11.33
2019-05-26T04:33:33.296Z,11.37
2019-05-26T04:36:06.341Z,11.43
2019-05-26T04:38:39.032Z,11.48
2019-05-26T04:41:12.904Z,11.55
2019-05-26T04:43:45.665Z,11.66
2019-05-26T04:46:20.940Z,11.75
2019-05-26T04:49:02.691Z,11.83
2019-05-26T04:51:35.375Z,11.93
2019-05-26T04:54:07.934Z,12.01
2019-05-26T04:56:43.800Z,12.10
2019-05-26T04:59:18.907Z,12.21
2019-05-26T05:01:53.711Z,12.30
2019-05-26T05:04:28.206Z,12.35
2019-05-26T05:07:00.795Z,12.40
2019-05-26T05:09:33.506Z,12.46
2019-05-26T05:12:07.321Z,12.49
2019-05-26T05:14:40.633Z,12.54
2019-05-26T05:17:14.842Z,12.59
2019-05-26T05:19:48.338Z,12.66
2019-05-26T05:22:21.884Z,12.71
2019-05-26T05:24:55.622Z,12.78
2019-05-26T05:27:30.296Z,12.85
2019-05-26T05:30:07.354Z,12.93
2019-05-26T05:32:40.433Z,13.04
2019-05-26T05:35:14.806Z,13.15
2019-05-26T05:37:48.518Z,13.26
2019-05-26T05:40:21.198Z,13.31
2019-05-26T05:42:53.861Z,13.36
2019-05-26T05:45:27.486Z,13.39
2019-05-26T05:48:00.168Z,13.40
2019-05-26T05:54:00.787Z,13.53
2019-05-26T05:56:33.509Z,13.57
2019-05-26T05:59:06.128Z,13.63
2019-05-26T06:01:38.904Z,13.66
2019-05-26T06:04:13.390Z,13.66
2019-05-26T06:06:46.890Z,13.70
2019-05-26T06:09:23.364Z,13.75
2019-05-26T06:11:56.866Z,13.85
2019-05-26T06:14:29.900Z,13.97
2019-05-26T06:17:04.023Z,14.02
2019-05-26T06:19:36.672Z,14.07
2019-05-26T06:22:10.575Z,14.09
2019-05-26T06:24:44.423Z,14.17
2019-05-26T06:27:18.775Z,14.24
2019-05-26T06:29:59.057Z,14.34
2019-05-26T06:32:32.021Z,14.44
2019-05-26T06:35:05.626Z,14.52
2019-05-26T06:37:38.381Z,14.61
2019-05-26T06:40:14.069Z,14.73
2019-05-26T06:42:46.745Z,14.81
2019-05-26T06:45:20.829Z,14.87
2019-05-26T06:47:54.411Z,14.84
2019-05-26T06:50:27.788Z,14.88
2019-05-26T06:53:01.391Z,15.04
2019-05-26T06:55:33.899Z,15.23
2019-05-26T06:58:12.642Z,15.35
2019-05-26T07:00:46.984Z,15.35
2019-05-26T07:03:21.697Z,15.44
2019-05-26T07:05:57.935Z,15.54
2019-05-26T07:08:30.648Z,15.73
2019-05-26T07:11:05.010Z,15.87
2019-05-26T07:13:42.353Z,16.01
2019-05-26T07:16:15.588Z,16.18
2019-05-26T07:18:48.514Z,16.30
2019-05-26T07:21:23.782Z,16.33
2019-05-26T07:23:56.434Z,16.32
2019-05-26T07:26:40.282Z,16.49
2019-05-26T07:29:13.010Z,16.60
2019-05-26T07:31:47.275Z,16.63
2019-05-26T07:34:19.898Z,16.69
2019-05-26T07:36:52.586Z,16.74
2019-05-26T07:39:25.483Z,16.89
2019-05-26T07:42:09.815Z,17.36
2019-05-26T07:45:04.735Z,18.02
2019-05-26T07:47:40.332Z,18.62
2019-05-26T07:50:17.575Z,19.19
2019-05-26T07:52:51.565Z,19.47
2019-05-26T07:55:28.694Z,19.63
2019-05-26T07:58:02.443Z,19.58
2019-05-26T08:00:39.326Z,19.48
2019-05-26T08:03:19.347Z,19.48
2019-05-26T08:05:52.387Z,19.74
2019-05-26T08:08:29.988Z,19.91
2019-05-26T08:11:02.881Z,20.02
2019-05-26T08:13:36.053Z,19.81
2019-05-26T08:16:09.545Z,19.84
2019-05-26T08:19:07.842Z,19.76
2019-05-26T08:21:42.862Z,20.02
2019-05-26T08:24:16.022Z,20.57
2019-05-26T08:26:48.724Z,20.98
2019-05-26T08:29:25.939Z,20.88
2019-05-26T08:32:00.734Z,20.84
2019-05-26T08:34:35.773Z,20.76
2019-05-26T08:37:13.291Z,20.83
2019-05-26T08:39:51.600Z,20.90
2019-05-26T08:42:43.766Z,20.90
2019-05-26T08:45:21.415Z,21.22
2019-05-26T08:47:55.746Z,21.30
2019-05-26T08:50:34.258Z,21.56
2019-05-26T08:53:13.088Z,21.90
2019-05-26T08:55:46.546Z,22.01
2019-05-26T08:58:22.487Z,22.18
2019-05-26T09:00:55.659Z,21.52
2019-05-26T09:03:32.125Z,21.09
2019-05-26T09:06:05.941Z,20.87
2019-05-26T09:08:40.035Z,20.91
2019-05-26T09:11:12.807Z,20.78
2019-05-26T09:13:48.462Z,20.51
2019-05-26T09:16:21.191Z,20.62
2019-05-26T09:19:01.359Z,20.66
2019-05-26T09:21:34.533Z,20.62
2019-05-26T09:24:08.761Z,20.63
2019-05-26T09:26:43.988Z,20.88
2019-05-26T09:29:17.531Z,20.95
2019-05-26T09:31:50.103Z,20.88
2019-05-26T09:34:22.860Z,20.77
2019-05-26T09:36:57.208Z,20.77
2019-05-26T09:39:31.584Z,20.95
2019-05-26T09:42:04.411Z,20.96
2019-05-26T09:44:41.787Z,21.06
2019-05-26T09:47:14.540Z,21.10
2019-05-26T09:49:48.249Z,20.98
2019-05-26T09:52:21.148Z,20.88
2019-05-26T09:55:01.759Z,21.11
2019-05-26T09:57:36.210Z,21.05
2019-05-26T10:00:25.631Z,20.82
2019-05-26T10:02:59.290Z,20.65
2019-05-26T10:05:32.955Z,20.62
2019-05-26T10:08:05.873Z,20.36
2019-05-26T10:10:38.632Z,20.40
2019-05-26T10:13:11.891Z,20.38
2019-05-26T10:15:46.280Z,20.29
2019-05-26T10:18:20.602Z,20.14
2019-05-26T10:20:59.641Z,20.06
2019-05-26T10:23:38.825Z,20.03
2019-05-26T10:26:19.816Z,20.01
2019-05-26T10:29:24.056Z,20.11
2019-05-26T10:32:08.458Z,20.32
2019-05-26T10:34:42.709Z,20.33
2019-05-26T10:37:18.157Z,20.25
2019-05-26T10:39:51.647Z,20.32
2019-05-26T10:42:25.320Z,20.49
2019-05-26T10:45:04.229Z,20.78
2019-05-26T10:47:42.949Z,21.14
2019-05-26T10:50:18.326Z,21.30
2019-05-26T10:52:52.200Z,21.61
2019-05-26T10:55:26.175Z,21.74
2019-05-26T10:57:58.956Z,21.89
2019-05-26T11:00:33.297Z,21.81
2019-05-26T11:03:07.095Z,21.61
2019-05-26T11:05:42.508Z,21.82
2019-05-26T11:08:24.253Z,21.91
2019-05-26T11:10:59.022Z,21.93
2019-05-26T11:13:40.846Z,21.85
2019-05-26T11:16:13.942Z,21.71
2019-05-26T11:18:47.401Z,21.76
2019-05-26T11:21:20.258Z,21.86
2019-05-26T11:23:53.809Z,21.91
2019-05-26T11:26:29.411Z,21.87
2019-05-26T11:29:04.301Z,21.68
2019-05-26T11:31:39.810Z,21.55
2019-05-26T11:34:15.480Z,21.37
2019-05-26T11:36:52.971Z,21.33
2019-05-26T11:39:41.456Z,21.54
2019-05-26T11:42:18.168Z,21.51
2019-05-26T11:44:54.099Z,21.49
2019-05-26T11:47:29.340Z,21.60
2019-05-26T11:50:06.493Z,21.76
2019-05-26T11:52:42.299Z,21.60
2019-05-26T11:55:20.379Z,21.31
2019-05-26T11:57:54.401Z,21.14
2019-05-26T12:00:27.742Z,21.02
2019-05-26T12:03:05.854Z,20.94
2019-05-26T12:05:43.142Z,20.97
2019-05-26T12:08:15.968Z,21.12
2019-05-26T12:10:49.947Z,21.15
2019-05-26T12:13:26.334Z,21.09
2019-05-26T12:16:01.354Z,21.12
2019-05-26T12:18:34.956Z,21.19
2019-05-26T12:21:08.459Z,21.46
2019-05-26T12:23:54.725Z,21.75
2019-05-26T12:26:28.516Z,21.90
2019-05-26T12:29:01.508Z,21.95
2019-05-26T12:31:34.595Z,21.91
2019-05-26T12:34:07.638Z,21.90
2019-05-26T12:36:40.942Z,21.85
2019-05-26T12:39:13.598Z,21.79
2019-05-26T12:41:46.476Z,21.59
2019-05-26T12:44:20.233Z,21.51
2019-05-26T12:46:53.443Z,21.52
2019-05-26T12:49:28.025Z,21.51
2019-05-26T12:52:02.120Z,21.57
2019-05-26T12:54:37.078Z,21.63
2019-05-26T12:57:10.201Z,21.75
2019-05-26T12:59:45.087Z,22.05
2019-05-26T13:02:19.204Z,22.25
2019-05-26T13:04:54.506Z,22.33
2019-05-26T13:07:27.841Z,22.39
2019-05-26T13:10:26.278Z,22.56
2019-05-26T13:13:01.241Z,22.49
2019-05-26T13:15:37.346Z,22.39
2019-05-26T13:18:38.194Z,22.28
2019-05-26T13:21:20.462Z,22.24
2019-05-26T13:23:56.080Z,22.25
2019-05-26T13:26:31.393Z,22.26
2019-05-26T13:29:06.825Z,22.13
2019-05-26T13:31:39.693Z,22.25
2019-05-26T13:34:15.568Z,22.54
2019-05-26T13:36:52.127Z,22.63
2019-05-26T13:39:37.796Z,22.59
2019-05-26T13:42:23.229Z,22.48
2019-05-26T13:45:21.678Z,22.51
2019-05-26T13:47:57.312Z,22.49
2019-05-26T13:50:30.939Z,22.46
2019-05-26T13:53:06.779Z,22.50
2019-05-26T13:55:53.230Z,22.47
2019-05-26T13:58:27.257Z,22.48
2019-05-26T14:01:00.637Z,22.45
2019-05-26T14:03:35.525Z,22.44
2019-05-26T14:06:11.964Z,22.39
2019-05-26T14:08:48.277Z,22.25
2019-05-26T14:11:23.849Z,22.26
2019-05-26T14:14:04.122Z,22.27
2019-05-26T14:17:03.238Z,22.34
2019-05-26T14:19:40.889Z,22.46
2019-05-26T14:22:25.362Z,22.40
2019-05-26T14:24:58.375Z,22.27
2019-05-26T14:27:38.327Z,22.18
2019-05-26T14:30:14.899Z,22.06
2019-05-26T14:32:49.961Z,21.95
2019-05-26T14:35:23.731Z,21.75
2019-05-26T14:37:56.779Z,21.48
2019-05-26T14:40:31.390Z,21.26
2019-05-26T14:43:07.617Z,21.19
2019-05-26T14:45:52.829Z,21.14
2019-05-26T14:48:28.259Z,21.22
2019-05-26T14:51:02.674Z,21.27
2019-05-26T14:53:39.696Z,21.29
2019-05-26T14:56:15.959Z,21.29
2019-05-26T14:58:52.009Z,21.36
2019-05-26T15:01:25.621Z,21.35
2019-05-26T15:03:59.113Z,21.23
2019-05-26T15:06:34.804Z,21.11
2019-05-26T15:09:24.834Z,21.02
2019-05-26T15:12:02.923Z,20.88
2019-05-26T15:14:35.522Z,20.74
2019-05-26T15:17:08.847Z,20.65
2019-05-26T15:19:42.183Z,20.64
2019-05-26T15:22:16.648Z,20.66
2019-05-26T15:24:49.417Z,20.69
2019-05-26T15:27:24.491Z,20.74
2019-05-26T15:29:58.628Z,20.76
2019-05-26T15:32:32.666Z,20.82
2019-05-26T15:35:08.161Z,20.90
2019-05-26T15:37:41.091Z,20.81
2019-05-26T15:40:34.415Z,20.73
2019-05-26T15:43:08.807Z,20.67
2019-05-26T15:45:45.948Z,20.67
2019-05-26T15:48:19.536Z,20.64
2019-05-26T15:50:52.600Z,20.63
2019-05-26T15:53:30.335Z,20.56
2019-05-26T15:56:04.281Z,20.54
2019-05-26T15:58:50.632Z,20.52
2019-05-26T16:01:25.190Z,20.46
2019-05-26T16:04:01.362Z,20.41
2019-05-26T16:06:34.078Z,20.37
2019-05-26T16:09:08.683Z,20.33
2019-05-26T16:11:43.607Z,20.29
2019-05-26T16:14:21.392Z,20.28
2019-05-26T16:16:56.441Z,20.29
2019-05-26T16:19:31.943Z,20.29
2019-05-26T16:22:09.763Z,20.30
2019-05-26T16:24:48.907Z,20.30
2019-05-26T16:27:27.246Z,20.33
2019-05-26T16:30:07.474Z,20.31
2019-05-26T16:32:50.605Z,20.29
2019-05-26T16:35:29.510Z,20.25
2019-05-26T16:38:07.827Z,20.21
2019-05-26T16:40:48.755Z,20.13
2019-05-26T16:43:22.368Z,20.09
2019-05-26T16:45:58.152Z,20.05
2019-05-26T16:48:32.063Z,20.04
2019-05-26T16:51:07.660Z,20.03
2019-05-26T16:53:42.998Z,20.07
2019-05-26T16:56:20.786Z,20.18
2019-05-26T16:58:54.625Z,20.28
2019-05-26T17:01:29.390Z,20.41
2019-05-26T17:04:04.845Z,20.46
2019-05-26T17:06:39.670Z,20.45
2019-05-26T17:09:31.627Z,20.45
2019-05-26T17:12:07.782Z,20.39
2019-05-26T17:14:42.714Z,20.32
2019-05-26T17:17:18.259Z,20.25
2019-05-26T17:20:00.596Z,20.19
2019-05-26T17:22:35.734Z,20.12
2019-05-26T17:25:10.676Z,20.05
2019-05-26T17:27:44.510Z,20.02
2019-05-26T17:30:22.076Z,19.97
2019-05-26T17:32:57.076Z,19.98
2019-05-26T17:35:37.583Z,19.97
2019-05-26T17:38:11.112Z,19.95
2019-05-26T17:40:46.828Z,19.94
2019-05-26T17:43:21.434Z,19.92
2019-05-26T17:45:56.564Z,19.91
2019-05-26T17:48:34.974Z,19.89
2019-05-26T17:51:17.518Z,19.88
2019-05-26T17:53:54.086Z,19.88
2019-05-26T17:56:40.119Z,19.89
2019-05-26T17:59:16.513Z,19.91
2019-05-26T18:01:57.525Z,19.92
2019-05-26T18:04:42.350Z,19.94
2019-05-26T18:07:17.550Z,20.02
2019-05-26T18:09:55.366Z,20.18
2019-05-26T18:12:38.755Z,20.25
2019-05-26T18:15:21.261Z,20.31
2019-05-26T18:17:59.041Z,20.35
2019-05-26T18:20:34.416Z,20.37
2019-05-26T18:23:11.527Z,20.32
2019-05-26T18:25:46.269Z,20.22
2019-05-26T18:28:20.650Z,20.10
2019-05-26T18:30:56.151Z,20.02
2019-05-26T18:33:31.813Z,19.97
2019-05-26T18:36:04.457Z,19.91
2019-05-26T18:38:41.393Z,19.90
2019-05-26T18:41:22.565Z,19.87
2019-05-26T18:43:57.265Z,19.82
2019-05-26T18:46:30.003Z,19.79
2019-05-26T18:49:12.357Z,19.71
2019-05-26T18:51:48.770Z,19.61
2019-05-26T18:54:24.716Z,19.50
2019-05-26T18:56:59.958Z,19.37
2019-05-26T18:59:36.032Z,19.26
2019-05-26T19:02:11.131Z,19.12
2019-05-26T19:04:45.431Z,19.00
2019-05-26T19:07:18.733Z,18.89
2019-05-26T19:10:04.710Z,18.77
2019-05-26T19:12:47.150Z,18.65
2019-05-26T19:15:28.350Z,18.54
2019-05-26T19:18:16.758Z,18.47
2019-05-26T19:20:56.781Z,18.42
2019-05-26T19:23:34.491Z,18.33
2019-05-26T19:26:08.204Z,18.23
2019-05-26T19:28:41.648Z,18.14
2019-05-26T19:31:14.480Z,18.12
2019-05-26T19:33:47.042Z,18.11
2019-05-26T19:36:19.881Z,18.08
2019-05-26T19:38:54.242Z,18.04
2019-05-26T19:41:33.003Z,17.95
2019-05-26T19:44:06.338Z,17.92
2019-05-26T19:46:41.077Z,17.86
2019-05-26T19:49:17.921Z,17.84
2019-05-26T19:51:56.030Z,17.81
2019-05-26T19:54:37.105Z,17.80
2019-05-26T19:57:16.270Z,17.83
2019-05-26T20:00:10.554Z,17.89
2019-05-26T20:02:47.951Z,17.85
2019-05-26T20:05:22.170Z,17.80
2019-05-26T20:07:57.148Z,17.72
2019-05-26T20:10:34.219Z,17.61
2019-05-26T20:13:11.222Z,17.53
2019-05-26T20:15:46.007Z,17.47
2019-05-26T20:18:18.831Z,17.39
2019-05-26T20:20:52.605Z,17.34
2019-05-26T20:23:26.917Z,17.29
2019-05-26T20:25:59.619Z,17.46
2019-05-26T20:28:34.823Z,17.58
2019-05-26T20:31:10.207Z,17.64
2019-05-26T20:33:43.742Z,17.65
2019-05-26T20:36:43.932Z,17.61
2019-05-26T20:39:19.219Z,17.54
2019-05-26T20:41:55.334Z,17.48
2019-05-26T20:44:30.767Z,17.40
2019-05-26T20:47:05.744Z,17.33
2019-05-26T20:49:45.733Z,17.26
2019-05-26T20:52:20.152Z,17.24
2019-05-26T20:54:54.215Z,17.20
2019-05-26T20:57:26.877Z,17.14
2019-05-26T21:00:01.571Z,17.08
2019-05-26T21:02:37.866Z,17.07
2019-05-26T21:05:11.392Z,17.03
2019-05-26T21:07:45.497Z,17.00
2019-05-26T21:10:18.509Z,16.93
2019-05-26T21:12:52.623Z,16.92
2019-05-26T21:15:25.777Z,16.93
2019-05-26T21:18:02.072Z,17.00
2019-05-26T21:20:35.243Z,17.06
2019-05-26T21:23:08.806Z,17.09
2019-05-26T21:25:43.319Z,17.12
2019-05-26T21:28:18.723Z,17.13
2019-05-26T21:30:51.396Z,17.14
2019-05-26T21:33:24.009Z,17.15
2019-05-26T21:35:57.190Z,17.13
2019-05-26T21:38:30.650Z,17.14
2019-05-26T21:41:04.345Z,17.15
2019-05-26T21:43:37.570Z,17.13
2019-05-26T21:46:12.039Z,17.11
2019-05-26T21:48:45.533Z,17.06
2019-05-26T21:51:19.222Z,17.03
2019-05-26T21:53:52.264Z,17.01
2019-05-26T21:56:27.226Z,16.98
2019-05-26T21:59:00.894Z,16.92
2019-05-26T22:01:33.717Z,16.86
2019-05-26T22:04:08.578Z,16.81
2019-05-26T22:06:42.635Z,16.73
2019-05-26T22:09:17.180Z,16.64
2019-05-26T22:11:50.447Z,16.53
2019-05-26T22:14:27.210Z,16.41
2019-05-26T22:17:00.225Z,16.35
2019-05-26T22:19:32.789Z,16.28
2019-05-26T22:22:05.685Z,16.23
2019-05-26T22:24:38.374Z,16.18
2019-05-26T22:27:11.050Z,16.13
2019-05-26T22:29:44.347Z,16.08
2019-05-26T22:32:16.965Z,16.04
2019-05-26T22:34:50.402Z,16.03
2019-05-26T22:37:22.934Z,15.99
2019-05-26T22:39:55.463Z,15.90
2019-05-26T22:42:31.311Z,15.83
2019-05-26T22:45:08.944Z,15.82
2019-05-26T22:47:43.018Z,15.85
2019-05-26T22:50:18.374Z,15.84
2019-05-26T22:52:51.740Z,15.83
2019-05-26T22:55:24.405Z,15.82
2019-05-26T22:57:57.057Z,15.79
2019-05-26T23:00:29.959Z,15.76
2019-05-26T23:03:03.343Z,15.73
2019-05-26T23:05:37.698Z,15.70
2019-05-26T23:08:10.270Z,15.69
2019-05-26T23:10:43.438Z,15.66
2019-05-26T23:13:16.013Z,15.68
2019-05-26T23:15:49.654Z,15.68
2019-05-26T23:18:22.229Z,15.70
2019-05-26T23:20:55.865Z,15.71
2019-05-26T23:23:28.476Z,15.73
2019-05-26T23:26:01.224Z,15.73
2019-05-26T23:28:34.818Z,15.75
2019-05-26T23:31:11.367Z,15.75
2019-05-26T23:33:46.054Z,15.75
2019-05-26T23:36:19.707Z,15.75
2019-05-26T23:38:54.298Z,15.73
2019-05-26T23:41:26.999Z,15.70
2019-05-26T23:43:59.700Z,15.68
2019-05-26T23:46:33.141Z,15.65
2019-05-26T23:49:05.744Z,15.64
2019-05-26T23:51:38.384Z,15.62
2019-05-26T23:54:11.054Z,15.60
2019-05-26T23:56:43.746Z,15.58
2019-05-26T23:59:16.326Z,15.58
